createdAt,value
2022-11-28T00:01:34.416Z,54.67
2022-11-28T00:04:01.873Z,53.33
2022-11-28T00:06:29.226Z,54.13
2022-11-28T00:08:59.650Z,55.30
2022-11-28T00:11:27.808Z,55.05
2022-11-28T00:13:55.731Z,54.25
2022-11-28T00:16:24.073Z,55.85
2022-11-28T00:18:53.077Z,52.97
2022-11-28T00:21:21.165Z,55.75
2022-11-28T00:23:49.058Z,56.72
2022-11-28T00:26:20.472Z,52.53
2022-11-28T00:28:47.746Z,56.40
2022-11-28T00:31:26.565Z,50.83
2022-11-28T00:33:54.002Z,54.35
2022-11-28T00:36:22.517Z,54.50
2022-11-28T00:38:50.604Z,51.83
2022-11-28T00:41:21.166Z,52.63
2022-11-28T00:43:49.740Z,52.90
2022-11-28T00:46:18.264Z,50.83
2022-11-28T00:48:45.905Z,52.13
2022-11-28T00:51:14.288Z,51.88
2022-11-28T00:53:43.987Z,51.33
2022-11-28T00:56:13.388Z,54.33
2022-11-28T00:58:41.609Z,51.83
2022-11-28T01:01:17.721Z,52.33
2022-11-28T01:03:45.715Z,51.72
2022-11-28T01:06:19.746Z,50.70
2022-11-28T01:08:46.637Z,50.33
2022-11-28T01:11:14.043Z,49.40
2022-11-28T01:13:41.107Z,49.58
2022-11-28T01:16:09.613Z,48.97
2022-11-28T01:18:37.441Z,50.22
2022-11-28T01:21:06.539Z,50.67
2022-11-28T01:23:35.004Z,49.92
2022-11-28T01:26:03.929Z,46.85
2022-11-28T01:28:30.879Z,46.78
2022-11-28T01:31:03.711Z,51.38
2022-11-28T01:33:30.966Z,47.75
2022-11-28T01:35:59.382Z,49.95
2022-11-28T01:38:27.095Z,47.92
2022-11-28T01:40:55.311Z,49.72
2022-11-28T01:43:23.123Z,50.85
2022-11-28T01:45:51.143Z,49.55
2022-11-28T01:48:26.786Z,50.35
2022-11-28T01:50:58.618Z,48.03
2022-11-28T01:53:31.502Z,50.08
2022-11-28T01:56:43.492Z,48.60
2022-11-28T01:59:12.322Z,48.22
2022-11-28T02:01:39.969Z,47.35
2022-11-28T02:04:07.415Z,48.75
2022-11-28T02:06:35.661Z,46.30
2022-11-28T02:09:02.480Z,46.42
2022-11-28T02:11:56.759Z,45.97
2022-11-28T02:14:52.049Z,46.55
2022-11-28T02:18:05.758Z,47.80
2022-11-28T02:20:51.085Z,47.60
2022-11-28T02:23:40.853Z,47.70
2022-11-28T02:26:35.759Z,48.03
2022-11-28T02:33:03.315Z,46.80
2022-11-28T02:38:52.924Z,47.00
2022-11-28T02:41:44.224Z,46.13
2022-11-28T02:44:16.710Z,48.25
2022-11-28T02:46:53.006Z,47.70
2022-11-28T02:49:26.903Z,46.83
2022-11-28T02:52:00.510Z,45.33
2022-11-28T02:54:28.080Z,45.05
2022-11-28T02:56:55.493Z,46.88
2022-11-28T02:59:48.237Z,46.25
2022-11-28T03:02:23.906Z,41.92
2022-11-28T03:05:06.012Z,44.72
2022-11-28T03:08:10.801Z,43.75
2022-11-28T03:11:02.497Z,45.20
2022-11-28T03:13:50.747Z,43.40
2022-11-28T03:16:30.196Z,45.40
2022-11-28T03:19:19.253Z,45.72
2022-11-28T03:21:55.585Z,45.08
2022-11-28T03:24:52.082Z,45.67
2022-11-28T03:27:25.777Z,44.92
2022-11-28T03:29:57.153Z,46.80
2022-11-28T03:32:31.720Z,47.35
2022-11-28T03:35:14.214Z,45.08
2022-11-28T03:37:49.621Z,45.65
2022-11-28T03:40:22.380Z,48.25
2022-11-28T03:43:17.621Z,45.75
2022-11-28T03:45:49.428Z,44.25
2022-11-28T03:48:46.957Z,43.35
2022-11-28T03:51:18.573Z,43.88
2022-11-28T03:54:00.393Z,47.35
2022-11-28T03:56:40.048Z,46.40
2022-11-28T03:59:16.732Z,44.05
2022-11-28T04:01:49.699Z,42.33
2022-11-28T04:04:35.936Z,44.13
2022-11-28T04:07:06.113Z,44.67
2022-11-28T04:09:45.141Z,43.85
2022-11-28T04:12:26.597Z,42.00
2022-11-28T04:15:00.568Z,41.60
2022-11-28T04:17:33.697Z,43.08
2022-11-28T04:20:12.393Z,43.08
2022-11-28T04:22:49.126Z,41.85
2022-11-28T04:25:18.007Z,42.22
2022-11-28T04:27:50.663Z,43.40
2022-11-28T04:30:17.605Z,39.38
2022-11-28T04:32:50.723Z,42.95
2022-11-28T04:35:29.685Z,41.95
2022-11-28T04:37:58.969Z,42.15
2022-11-28T04:40:29.690Z,40.90
2022-11-28T04:43:02.738Z,41.13
2022-11-28T04:45:35.372Z,38.00
2022-11-28T04:48:02.933Z,41.88
2022-11-28T04:50:47.183Z,36.92
2022-11-28T04:53:25.079Z,38.38
2022-11-28T04:56:03.607Z,37.08
2022-11-28T04:58:43.656Z,38.10
2022-11-28T05:01:16.775Z,37.60
2022-11-28T05:03:44.706Z,36.58
2022-11-28T05:06:26.095Z,37.33
2022-11-28T05:08:53.511Z,37.47
2022-11-28T05:11:20.532Z,37.92
2022-11-28T05:13:47.821Z,38.13
2022-11-28T05:16:15.955Z,38.63
2022-11-28T05:18:44.084Z,36.67
2022-11-28T05:21:11.573Z,34.33
2022-11-28T05:23:44.337Z,35.85
2022-11-28T05:26:17.384Z,33.22
2022-11-28T05:28:46.983Z,35.50
2022-11-28T05:31:14.422Z,35.53
2022-11-28T05:33:42.032Z,35.13
2022-11-28T05:36:13.230Z,35.88
2022-11-28T05:38:41.909Z,35.95
2022-11-28T05:41:10.049Z,39.25
2022-11-28T05:43:37.518Z,36.65
2022-11-28T05:46:06.340Z,38.22
2022-11-28T05:48:34.008Z,38.83
2022-11-28T05:51:03.414Z,37.05
2022-11-28T05:53:30.714Z,38.83
2022-11-28T05:55:57.776Z,38.72
2022-11-28T05:58:24.929Z,37.40
2022-11-28T06:00:51.823Z,38.83
2022-11-28T06:03:18.968Z,36.58
2022-11-28T06:05:46.042Z,39.50
2022-11-28T06:08:13.552Z,41.85
2022-11-28T06:10:41.201Z,40.05
2022-11-28T06:13:08.997Z,39.88
2022-11-28T06:15:38.200Z,41.65
2022-11-28T06:18:06.260Z,41.67
2022-11-28T06:20:35.189Z,45.00
2022-11-28T06:23:02.357Z,39.60
2022-11-28T06:25:29.436Z,40.30
2022-11-28T06:27:56.856Z,41.17
2022-11-28T06:30:23.737Z,39.13
2022-11-28T06:32:50.812Z,41.47
2022-11-28T06:35:36.470Z,40.40
2022-11-28T06:38:03.682Z,40.95
2022-11-28T06:40:30.606Z,39.22
2022-11-28T06:42:57.813Z,37.40
2022-11-28T06:45:24.982Z,40.03
2022-11-28T06:47:52.304Z,36.83
2022-11-28T06:50:19.234Z,33.33
2022-11-28T06:52:46.757Z,33.10
2022-11-28T06:55:14.274Z,33.25
2022-11-28T06:57:41.548Z,34.33
2022-11-28T07:00:09.465Z,34.22
2022-11-28T07:02:37.288Z,33.88
2022-11-28T07:05:04.764Z,35.65
2022-11-28T07:07:32.309Z,32.97
2022-11-28T07:09:59.724Z,36.53
2022-11-28T07:12:26.913Z,35.47
2022-11-28T07:14:54.029Z,35.75
2022-11-28T07:17:21.188Z,35.03
2022-11-28T07:19:54.688Z,35.63
2022-11-28T07:22:22.845Z,36.15
2022-11-28T07:24:50.006Z,35.92
2022-11-28T07:27:17.310Z,35.80
2022-11-28T07:29:44.707Z,35.80
2022-11-28T07:32:12.203Z,36.33
2022-11-28T07:34:41.225Z,32.45
2022-11-28T07:37:08.814Z,31.17
2022-11-28T07:39:35.844Z,29.20
2022-11-28T07:42:03.067Z,31.98
2022-11-28T07:44:30.032Z,33.22
2022-11-28T07:46:57.189Z,31.80
2022-11-28T07:49:24.071Z,33.15
2022-11-28T07:51:51.423Z,35.25
2022-11-28T07:54:18.286Z,33.10
2022-11-28T07:57:11.996Z,32.58
2022-11-28T07:59:32.465Z,30.55
2022-11-28T08:02:00.092Z,34.85
2022-11-28T08:04:27.117Z,33.83
2022-11-28T08:06:54.438Z,33.88
2022-11-28T08:09:21.338Z,33.10
2022-11-28T08:11:49.307Z,33.50
2022-11-28T08:14:16.150Z,30.60
2022-11-28T08:16:45.301Z,32.03
2022-11-28T08:19:12.584Z,32.13
2022-11-28T08:21:39.967Z,31.65
2022-11-28T08:24:08.221Z,30.02
2022-11-28T08:26:36.590Z,28.63
2022-11-28T08:29:04.475Z,27.80
2022-11-28T08:31:49.798Z,29.27
2022-11-28T08:34:17.204Z,28.02
2022-11-28T08:36:44.832Z,29.35
2022-11-28T08:39:28.015Z,30.15
2022-11-28T08:41:57.683Z,29.08
2022-11-28T08:44:27.241Z,30.17
2022-11-28T08:46:54.978Z,30.05
2022-11-28T08:49:22.316Z,30.88
2022-11-28T08:51:49.788Z,29.75
2022-11-28T08:54:16.958Z,27.98
2022-11-28T08:56:45.448Z,27.60
2022-11-28T08:59:12.778Z,31.58
2022-11-28T09:01:39.857Z,29.58
2022-11-28T09:04:07.401Z,29.30
2022-11-28T09:06:34.535Z,28.85
2022-11-28T09:09:03.412Z,28.52
2022-11-28T09:11:30.918Z,28.08
2022-11-28T09:13:59.492Z,29.35
2022-11-28T09:16:26.474Z,30.70
2022-11-28T09:18:54.842Z,28.92
2022-11-28T09:21:22.223Z,29.65
2022-11-28T09:23:49.968Z,28.88
2022-11-28T09:26:20.140Z,28.65
2022-11-28T09:28:47.971Z,27.13
2022-11-28T09:31:16.600Z,27.63
2022-11-28T09:33:45.054Z,24.20
2022-11-28T09:36:15.323Z,25.25
2022-11-28T09:38:43.055Z,25.20
2022-11-28T09:41:28.222Z,24.30
2022-11-28T09:44:01.655Z,25.23
2022-11-28T09:46:34.318Z,25.92
2022-11-28T09:49:07.737Z,26.80
2022-11-28T09:51:51.088Z,25.67
2022-11-28T09:54:37.504Z,23.52
2022-11-28T09:57:12.924Z,23.58
2022-11-28T09:59:41.042Z,25.48
2022-11-28T10:02:28.303Z,24.33
2022-11-28T10:05:24.777Z,23.25
2022-11-28T10:08:13.413Z,22.80
2022-11-28T10:10:50.565Z,23.77
2022-11-28T10:13:32.693Z,23.17
2022-11-28T10:16:35.319Z,23.60
2022-11-28T10:19:16.107Z,20.67
2022-11-28T10:22:02.000Z,21.10
2022-11-28T10:27:05.852Z,19.58
2022-11-28T10:29:47.722Z,21.40
2022-11-28T10:32:18.419Z,22.23
2022-11-28T10:35:28.099Z,24.20
2022-11-28T10:37:56.426Z,21.20
2022-11-28T10:40:45.263Z,21.38
2022-11-28T10:43:31.289Z,19.80
2022-11-28T10:46:24.670Z,21.25
2022-11-28T10:48:56.123Z,18.17
2022-11-28T10:51:37.289Z,18.73
2022-11-28T10:54:38.408Z,18.95
2022-11-28T10:57:26.754Z,18.17
2022-11-28T11:00:06.656Z,19.67
2022-11-28T11:02:57.071Z,20.10
2022-11-28T11:05:30.216Z,19.60
2022-11-28T11:08:02.526Z,19.10
2022-11-28T11:10:51.353Z,19.05
2022-11-28T11:13:27.467Z,19.55
2022-11-28T11:16:01.916Z,19.60
2022-11-28T11:18:35.045Z,20.02
2022-11-28T11:21:17.319Z,20.10
2022-11-28T11:23:45.856Z,20.70
2022-11-28T11:26:41.278Z,20.75
2022-11-28T11:29:29.781Z,21.70
2022-11-28T11:32:03.567Z,20.77
2022-11-28T11:34:36.430Z,18.63
2022-11-28T11:37:23.320Z,23.30
2022-11-28T11:39:53.475Z,23.45
2022-11-28T11:42:26.675Z,22.33
2022-11-28T11:44:57.948Z,21.13
2022-11-28T11:47:44.345Z,21.63
2022-11-28T11:50:20.500Z,22.27
2022-11-28T11:53:07.090Z,19.42
2022-11-28T11:55:45.682Z,21.95
2022-11-28T11:58:17.559Z,21.85
2022-11-28T12:03:28.832Z,22.83
2022-11-28T12:06:16.956Z,23.55
2022-11-28T12:08:51.501Z,24.67
2022-11-28T12:11:45.458Z,23.45
2022-11-28T12:14:22.944Z,22.88
2022-11-28T12:16:57.407Z,23.40
2022-11-28T12:19:46.364Z,24.20
2022-11-28T12:22:40.927Z,24.20
2022-11-28T12:25:18.633Z,26.10
2022-11-28T12:27:50.934Z,24.20
2022-11-28T12:30:26.616Z,24.20
2022-11-28T12:32:56.741Z,23.27
2022-11-28T12:35:42.267Z,24.52
2022-11-28T12:38:31.547Z,21.17
2022-11-28T12:41:10.769Z,23.77
2022-11-28T12:44:19.367Z,22.23
2022-11-28T12:46:58.545Z,22.10
2022-11-28T12:49:37.308Z,23.23
2022-11-28T12:52:37.025Z,22.40
2022-11-28T12:55:22.821Z,25.02
2022-11-28T12:58:21.373Z,24.90
2022-11-28T13:01:06.564Z,23.83
2022-11-28T13:03:49.744Z,20.60
2022-11-28T13:06:31.654Z,20.05
2022-11-28T13:09:30.358Z,21.38
2022-11-28T13:12:15.953Z,18.55
2022-11-28T13:15:08.631Z,20.80
2022-11-28T13:18:05.020Z,20.48
2022-11-28T13:21:07.927Z,20.52
2022-11-28T13:23:43.192Z,21.02
2022-11-28T13:26:41.642Z,20.10
2022-11-28T13:29:17.209Z,19.27
2022-11-28T13:32:01.605Z,20.20
2022-11-28T13:34:31.178Z,18.45
2022-11-28T13:40:18.082Z,17.92
2022-11-28T13:43:03.915Z,19.15
2022-11-28T13:45:41.443Z,20.17
2022-11-28T13:51:33.729Z,20.67
2022-11-28T13:54:22.325Z,20.73
2022-11-28T13:57:09.917Z,19.95
2022-11-28T13:59:38.245Z,21.80
2022-11-28T14:02:32.618Z,21.88
2022-11-28T14:05:00.614Z,22.55
2022-11-28T14:07:33.775Z,43.55
2022-11-28T14:10:30.147Z,22.00
2022-11-28T14:13:40.398Z,21.50
2022-11-28T14:16:14.266Z,22.35
2022-11-28T14:19:11.562Z,23.00
2022-11-28T14:21:57.151Z,21.30
2022-11-28T14:24:52.270Z,21.08
2022-11-28T14:27:30.665Z,20.30
2022-11-28T14:29:58.863Z,21.20
2022-11-28T14:32:42.328Z,19.90
2022-11-28T14:35:52.305Z,19.30
2022-11-28T14:38:33.664Z,18.80
2022-11-28T14:41:03.444Z,20.13
2022-11-28T14:43:38.496Z,20.50
2022-11-28T14:46:29.010Z,19.73
2022-11-28T14:52:00.144Z,20.05
2022-11-28T14:54:43.169Z,20.55
2022-11-28T14:57:16.870Z,17.67
2022-11-28T14:59:45.398Z,19.13
2022-11-28T15:02:12.665Z,21.40
2022-11-28T15:04:51.093Z,18.52
2022-11-28T15:07:33.127Z,19.27
2022-11-28T15:10:14.228Z,19.88
2022-11-28T15:13:09.991Z,19.17
2022-11-28T15:15:47.936Z,19.05
2022-11-28T15:18:19.208Z,20.27
2022-11-28T15:21:01.283Z,20.42
2022-11-28T15:23:36.156Z,21.38
2022-11-28T15:26:03.604Z,19.42
2022-11-28T15:28:34.046Z,18.67
2022-11-28T15:31:04.894Z,21.38
2022-11-28T15:33:33.730Z,21.23
2022-11-28T15:36:10.950Z,20.45
2022-11-28T15:38:41.605Z,18.95
2022-11-28T15:41:09.856Z,22.73
2022-11-28T15:43:42.299Z,21.08
2022-11-28T15:46:32.433Z,21.90
2022-11-28T15:49:01.614Z,24.13
2022-11-28T15:51:32.821Z,22.50
2022-11-28T15:54:00.797Z,23.48
2022-11-28T15:56:28.274Z,20.42
2022-11-28T15:58:56.704Z,21.58
2022-11-28T16:01:27.136Z,21.85
2022-11-28T16:03:59.609Z,21.50
2022-11-28T16:06:31.138Z,23.15
2022-11-28T16:09:05.368Z,22.75
2022-11-28T16:11:35.611Z,23.10
2022-11-28T16:14:09.200Z,21.77
2022-11-28T16:16:38.747Z,20.55
2022-11-28T16:19:09.200Z,21.23
2022-11-28T16:21:44.434Z,20.58
2022-11-28T16:24:38.566Z,21.17
2022-11-28T16:27:06.602Z,20.65
2022-11-28T16:29:36.143Z,19.73
2022-11-28T16:32:31.913Z,20.95
2022-11-28T16:35:02.649Z,20.92
2022-11-28T16:37:32.088Z,22.15
2022-11-28T16:40:13.799Z,20.02
2022-11-28T16:42:41.743Z,21.35
2022-11-28T16:45:22.226Z,21.98
2022-11-28T16:48:00.966Z,22.87
2022-11-28T16:50:28.411Z,21.63
2022-11-28T16:53:00.035Z,21.15
2022-11-28T16:58:19.992Z,21.15
2022-11-28T17:01:02.412Z,20.45
2022-11-28T17:03:51.277Z,22.83
2022-11-28T17:06:34.309Z,19.83
2022-11-28T17:09:02.399Z,20.33
2022-11-28T17:11:33.592Z,20.20
2022-11-28T17:14:05.314Z,20.83
2022-11-28T17:16:36.984Z,20.48
2022-11-28T17:19:05.081Z,22.10
2022-11-28T17:21:37.686Z,20.58
2022-11-28T17:24:05.582Z,18.45
2022-11-28T17:26:32.829Z,20.52
2022-11-28T17:29:00.807Z,18.60
2022-11-28T17:31:27.888Z,18.83
2022-11-28T17:33:55.271Z,20.73
2022-11-28T17:36:22.318Z,19.55
2022-11-28T17:38:49.782Z,21.27
2022-11-28T17:41:16.704Z,21.92
2022-11-28T17:43:43.964Z,21.20
2022-11-28T17:46:11.390Z,19.98
2022-11-28T17:48:38.943Z,19.83
2022-11-28T17:51:06.223Z,21.13
2022-11-28T17:53:34.244Z,17.60
2022-11-28T17:56:01.220Z,20.10
2022-11-28T17:58:29.286Z,20.00
2022-11-28T18:01:00.595Z,20.33
2022-11-28T18:03:29.361Z,19.48
2022-11-28T18:05:56.392Z,19.58
2022-11-28T18:08:23.858Z,22.50
2022-11-28T18:11:03.141Z,21.52
2022-11-28T18:13:30.778Z,21.85
2022-11-28T18:15:58.401Z,20.80
2022-11-28T18:18:26.351Z,21.52
2022-11-28T18:20:53.376Z,22.50
2022-11-28T18:23:22.087Z,20.88
2022-11-28T18:25:49.291Z,19.98
2022-11-28T18:28:18.967Z,21.80
2022-11-28T18:30:48.353Z,21.10
2022-11-28T18:33:16.316Z,20.88
2022-11-28T18:35:43.769Z,22.60
2022-11-28T18:38:12.095Z,20.60
2022-11-28T18:40:39.692Z,21.55
2022-11-28T18:43:07.320Z,22.05
2022-11-28T18:45:35.267Z,21.05
2022-11-28T18:48:03.336Z,22.75
2022-11-28T18:50:31.059Z,20.52
2022-11-28T18:52:58.668Z,22.30
2022-11-28T18:55:26.388Z,23.95
2022-11-28T18:57:54.365Z,21.23
2022-11-28T19:00:21.932Z,21.20
2022-11-28T19:02:49.465Z,23.10
2022-11-28T19:05:16.628Z,20.45
2022-11-28T19:07:43.995Z,21.23
2022-11-28T19:10:12.112Z,21.77
2022-11-28T19:12:39.545Z,22.73
2022-11-28T19:15:06.878Z,17.15
2022-11-28T19:17:34.561Z,23.55
2022-11-28T19:20:01.532Z,18.08
2022-11-28T19:22:29.008Z,22.50
2022-11-28T19:24:56.841Z,22.38
2022-11-28T19:27:24.358Z,21.70
2022-11-28T19:29:53.064Z,20.73
2022-11-28T19:32:20.751Z,22.50
2022-11-28T19:34:52.289Z,22.20
2022-11-28T19:37:20.548Z,20.60
2022-11-28T19:39:47.968Z,22.13
2022-11-28T19:42:16.432Z,20.52
2022-11-28T19:44:43.899Z,18.73
2022-11-28T19:47:11.237Z,20.42
2022-11-28T19:49:38.301Z,21.08
2022-11-28T19:52:06.186Z,18.42
2022-11-28T19:54:34.179Z,19.30
2022-11-28T19:57:02.487Z,20.95
2022-11-28T19:59:31.356Z,17.45
2022-11-28T20:01:58.914Z,17.42
2022-11-28T20:04:26.182Z,18.92
2022-11-28T20:06:53.660Z,16.83
2022-11-28T20:09:20.727Z,20.08
2022-11-28T20:11:48.432Z,18.60
2022-11-28T20:14:17.791Z,19.20
2022-11-28T20:16:45.815Z,19.67
2022-11-28T20:19:15.188Z,18.27
2022-11-28T20:21:46.130Z,20.13
2022-11-28T20:24:14.386Z,16.73
2022-11-28T20:26:44.099Z,17.10
2022-11-28T20:29:16.195Z,13.73
2022-11-28T20:31:47.793Z,17.70
2022-11-28T20:34:18.396Z,17.10
2022-11-28T20:36:51.401Z,18.73
2022-11-28T20:39:18.952Z,13.20
2022-11-28T20:41:46.279Z,18.13
2022-11-28T20:44:13.341Z,18.27
2022-11-28T20:46:40.645Z,18.25
2022-11-28T20:49:07.770Z,18.25
2022-11-28T20:51:35.900Z,18.02
2022-11-28T20:54:04.930Z,16.75
2022-11-28T20:56:51.527Z,18.70
2022-11-28T20:59:22.324Z,16.85
2022-11-28T21:01:49.522Z,17.95
2022-11-28T21:04:17.698Z,15.82
2022-11-28T21:06:47.259Z,16.27
2022-11-28T21:09:14.851Z,16.83
2022-11-28T21:11:56.832Z,16.77
2022-11-28T21:14:24.307Z,13.88
2022-11-28T21:16:51.768Z,16.33
2022-11-28T21:19:18.696Z,16.20
2022-11-28T21:21:45.784Z,16.42
2022-11-28T21:24:13.945Z,15.82
2022-11-28T21:26:45.340Z,15.60
2022-11-28T21:29:14.855Z,14.38
2022-11-28T21:31:43.823Z,15.93
2022-11-28T21:34:15.599Z,15.52
2022-11-28T21:36:43.561Z,15.45
2022-11-28T21:39:13.856Z,15.13
2022-11-28T21:41:41.161Z,14.70
2022-11-28T21:44:08.818Z,15.98
2022-11-28T21:46:36.400Z,16.27
2022-11-28T21:49:03.388Z,15.30
2022-11-28T21:51:30.710Z,14.80
2022-11-28T21:53:58.165Z,14.20
2022-11-28T21:56:25.881Z,15.45
2022-11-28T21:58:53.987Z,15.40
2022-11-28T22:01:22.214Z,14.18
2022-11-28T22:03:49.451Z,14.70
2022-11-28T22:06:20.443Z,15.40
2022-11-28T22:08:49.017Z,13.23
2022-11-28T22:11:16.581Z,14.48
2022-11-28T22:13:47.913Z,13.85
2022-11-28T22:16:20.519Z,15.00
2022-11-28T22:18:50.185Z,13.35
2022-11-28T22:21:50.547Z,14.82
2022-11-28T22:24:08.250Z,13.68
2022-11-28T22:26:35.888Z,13.48
2022-11-28T22:29:04.286Z,11.65
2022-11-28T22:31:33.064Z,14.10
2022-11-28T22:34:00.305Z,15.25
2022-11-28T22:36:27.814Z,13.48
2022-11-28T22:38:57.837Z,14.73
2022-11-28T22:41:29.426Z,15.47
2022-11-28T22:44:00.917Z,15.18
2022-11-28T22:46:31.140Z,14.70
2022-11-28T22:49:00.968Z,15.93
2022-11-28T22:51:29.361Z,15.10
2022-11-28T22:53:59.004Z,15.25
2022-11-28T22:56:29.456Z,14.48
2022-11-28T22:58:59.078Z,14.82
2022-11-28T23:01:30.224Z,15.73
2022-11-28T23:03:58.355Z,15.45
2022-11-28T23:06:28.213Z,16.48
2022-11-28T23:08:56.258Z,14.65
2022-11-28T23:11:27.662Z,14.98
2022-11-28T23:13:55.476Z,15.52
2022-11-28T23:16:27.079Z,14.85
2022-11-28T23:18:56.430Z,15.77
2022-11-28T23:21:25.170Z,15.10
2022-11-28T23:23:52.558Z,16.13
2022-11-28T23:26:23.547Z,16.23
2022-11-28T23:28:51.103Z,14.73
2022-11-28T23:31:27.776Z,14.95
2022-11-28T23:33:55.842Z,15.05
2022-11-28T23:36:41.448Z,14.55
2022-11-28T23:39:20.918Z,14.35
2022-11-28T23:41:50.093Z,15.25
2022-11-28T23:44:18.969Z,14.65
2022-11-28T23:46:47.246Z,14.02
2022-11-28T23:49:14.892Z,14.02
2022-11-28T23:51:42.467Z,14.77
2022-11-28T23:54:10.973Z,14.77
2022-11-28T23:56:39.892Z,14.63
2022-11-28T23:59:09.143Z,15.30
